This is the latest recevied weather packets stored in our database for station/object JM1YTT-13. If no packets are shown the sender has not sent any weather packets the latest 10 day(s).
| Time | Temp. | Humidity | Pressure | Rain* | Wind** | Luminosity | Snow |
|---|---|---|---|---|---|---|---|
| 1777372990 | 20° C | 74% | 1006.3 hPa | 0 mm | - | - | - |
| 1777371190 | 20.56° C | 73% | 1006 hPa | 0 mm | - | - | - |
| 1777369390 | 20.56° C | 69% | 1005.8 hPa | 0 mm | - | - | - |
| 1777367590 | 21.67° C | 61% | 1005.6 hPa | 0 mm | - | - | - |
| 1777365790 | 23.33° C | 54% | 1005.6 hPa | 0 mm | - | - | - |
| 1777363990 | 23.89° C | 54% | 1005.6 hPa | 0 mm | - | - | - |
| 1777362190 | 24.44° C | 52% | 1005.8 hPa | 0 mm | - | - | - |
| 1777360390 | 23.89° C | 53% | 1005.8 hPa | 0 mm | - | - | - |
| 1777358590 | 24.44° C | 54% | 1006 hPa | 0 mm | - | - | - |
| 1777356790 | 24.44° C | 51% | 1006.3 hPa | 0 mm | - | - | - |
| 1777354990 | 24.44° C | 48% | 1006.4 hPa | 0 mm | - | - | - |
| 1777353190 | 25.56° C | 47% | 1007 hPa | 0 mm | - | - | - |
| 1777351390 | 25.56° C | 51% | 1007.5 hPa | 0 mm | - | - | - |
| 1777349590 | 25.56° C | 50% | 1008.1 hPa | 0 mm | - | - | - |
| 1777347790 | 24.44° C | 55% | 1008.4 hPa | 0 mm | - | - | - |
| 1777345990 | 23.89° C | 55% | 1008.8 hPa | 0 mm | - | - | - |
| 1777344190 | 23.33° C | 56% | 1009.5 hPa | 0 mm | - | - | - |
| 1777343230 | 23.33° C | 57% | 1010 hPa | 0 mm | - | - | - |
| 1777342270 | 23.33° C | 56% | 1010 hPa | 0 mm | - | - | - |
| 1777341790 | 23.89° C | 57% | 1010 hPa | 0 mm | - | - | - |
| 1777341310 | 23.33° C | 58% | 1010.1 hPa | 0 mm | - | - | - |
| 1777341070 | 23.33° C | 58% | 1010.1 hPa | 0 mm | - | - | - |
| 1777340830 | 22.78° C | 59% | 1010.3 hPa | 0 mm | - | - | - |
| 1777340710 | 22.78° C | 59% | 1010.3 hPa | 0 mm | - | - | - |
| 1777340590 | 22.78° C | 59% | 1010.3 hPa | 0 mm | - | - | - |
* Rain latest hour (hover to see other rain measurements)
** Current wind speed in m/s (hover to see current wind gust speed)